Time;durP1;ratioP1;P1;durP2;ratioP2;P2;SDS_P1;SDS_P2;PMS_P1;PMS_P2;Temp;Humidity;BMP_temperature;BMP_pressure;BME280_temperature;BME280_humidity;BME280_pressure;Samples;Min_cycle;Max_cycle;Signal;HPM_P1;HPM_P2
2023/03/24 00:00:37;;;;;;;12.02;6.57;;;;;;;;;;6260803;28;20056;-61
2023/03/24 00:03:56;;;;;;;11.98;6.53;;;;;;;;;;6264081;28;20107;-61
2023/03/24 00:06:56;;;;;;;11.53;6.73;;;;;;;;;;6263484;28;20170;-62
2023/03/24 00:09:57;;;;;;;10.85;6.22;;;;;;;;;;6261066;28;20052;-61
2023/03/24 00:12:57;;;;;;;11.20;5.80;;;;;;;;;;6263007;28;20040;-61
2023/03/24 00:16:00;;;;;;;12.85;7.25;;;;;;;;;;6259872;28;20052;-61
2023/03/24 00:19:01;;;;;;;9.75;5.93;;;;;;;;;;6261414;28;20041;-61
2023/03/24 00:22:02;;;;;;;11.38;6.18;;;;;;;;;;6260722;28;20052;-62
2023/03/24 00:25:03;;;;;;;11.02;5.40;;;;;;;;;;6259746;28;20045;-61
2023/03/24 00:28:05;;;;;;;8.87;5.30;;;;;;;;;;6260961;28;20041;-63
2023/03/24 00:31:07;;;;;;;9.80;5.43;;;;;;;;;;6262424;28;20118;-62
2023/03/24 00:34:09;;;;;;;10.82;4.90;;;;;;;;;;6260392;28;20041;-63
2023/03/24 00:37:09;;;;;;;10.65;5.22;;;;;;;;;;6261331;28;20404;-62
2023/03/24 00:40:15;;;;;;;8.35;4.72;;;;;;;;;;6261197;28;20049;-62
2023/03/24 00:43:16;;;;;;;11.85;4.57;;;;;;;;;;6261240;28;20084;-61
2023/03/24 00:46:26;;;;;;;13.07;4.85;;;;;;;;;;6259223;28;20546;-62
2023/03/24 00:49:41;;;;;;;9.50;5.07;;;;;;;;;;6260480;28;20048;-61
2023/03/24 00:52:43;;;;;;;9.75;5.20;;;;;;;;;;6262030;28;20058;-61
2023/03/24 00:55:46;;;;;;;12.07;5.15;;;;;;;;;;6265186;28;20105;-61
2023/03/24 00:58:47;;;;;;;10.15;5.85;;;;;;;;;;6260553;28;20051;-63
2023/03/24 01:01:47;;;;;;;10.05;5.03;;;;;;;;;;6261192;28;20396;-60
2023/03/24 01:04:57;;;;;;;9.00;5.15;;;;;;;;;;6258509;28;20102;-61
2023/03/24 01:08:01;;;;;;;14.20;8.65;;;;;;;;;;6257567;28;20049;-60
2023/03/24 01:11:03;;;;;;;19.35;9.70;;;;;;;;;;6260135;28;20053;-61
2023/03/24 01:14:04;;;;;;;17.70;8.20;;;;;;;;;;6260876;28;20124;-60
2023/03/24 01:17:06;;;;;;;19.52;8.80;;;;;;;;;;6259062;28;20045;-61
2023/03/24 01:20:10;;;;;;;15.18;7.43;;;;;;;;;;6260235;28;20528;-60
2023/03/24 01:23:16;;;;;;;15.00;7.45;;;;;;;;;;6260284;28;20446;-61
2023/03/24 01:26:17;;;;;;;11.80;6.60;;;;;;;;;;6262105;28;20059;-61
2023/03/24 01:29:17;;;;;;;9.63;5.95;;;;;;;;;;6260390;28;20048;-61
2023/03/24 01:32:18;;;;;;;11.63;6.38;;;;;;;;;;6260474;28;20504;-61
2023/03/24 01:35:20;;;;;;;12.40;6.15;;;;;;;;;;6265201;28;20029;-60
2023/03/24 01:38:21;;;;;;;;;;;;;;;;;;6264586;28;20045;-61
2023/03/24 01:41:21;;;;;;;11.13;5.75;;;;;;;;;;6271366;28;19920;-61
2023/03/24 01:44:33;;;;;;;10.00;5.63;;;;;;;;;;6264617;28;20037;-61
2023/03/24 01:47:33;;;;;;;11.32;5.97;;;;;;;;;;6262755;28;21928;-60
2023/03/24 01:50:34;;;;;;;11.90;6.63;;;;;;;;;;6264206;28;20103;-61
2023/03/24 01:53:40;;;;;;;11.00;6.28;;;;;;;;;;6263177;28;20826;-64
2023/03/24 01:56:49;;;;;;;11.85;7.03;;;;;;;;;;6263702;28;20559;-60
2023/03/24 01:59:55;;;;;;;11.07;6.60;;;;;;;;;;6257877;28;20530;-61
2023/03/24 02:03:00;;;;;;;14.95;7.72;;;;;;;;;;6264349;28;20072;-60
2023/03/24 02:06:01;;;;;;;13.68;7.45;;;;;;;;;;6263628;28;20416;-59
2023/03/24 02:09:03;;;;;;;12.90;7.53;;;;;;;;;;6265594;28;20057;-60
2023/03/24 02:12:04;;;;;;;12.73;7.15;;;;;;;;;;6266069;28;20037;-62
2023/03/24 02:15:05;;;;;;;13.75;7.88;;;;;;;;;;6264074;28;20063;-62
2023/03/24 02:18:17;;;;;;;16.80;7.47;;;;;;;;;;6263714;28;20052;-62
2023/03/24 02:21:53;;;;;;;14.77;7.65;;;;;;;;;;6261357;28;20044;-63
2023/03/24 02:25:30;;;;;;;14.98;8.50;;;;;;;;;;6259910;28;20135;-62
2023/03/24 02:29:32;;;;;;;14.93;8.50;;;;;;;;;;6261535;28;20045;-61
2023/03/24 02:32:36;;;;;;;16.05;9.68;;;;;;;;;;6182433;28;20504;-61
2023/03/24 02:36:27;;;;;;;14.20;8.57;;;;;;;;;;6262558;28;20119;-61
2023/03/24 02:39:54;;;;;;;17.02;9.48;;;;;;;;;;6256265;28;20057;-62
2023/03/24 02:43:26;;;;;;;16.08;9.70;;;;;;;;;;6261063;28;21043;-62
2023/03/24 02:46:43;;;;;;;12.38;7.70;;;;;;;;;;6262281;28;20045;-62
2023/03/24 02:50:13;;;;;;;13.25;8.32;;;;;;;;;;6260409;28;20140;-62
2023/03/24 02:53:30;;;;;;;16.98;8.45;;;;;;;;;;6264555;28;20049;-61
2023/03/24 02:56:53;;;;;;;16.00;9.20;;;;;;;;;;6258086;28;20060;-63
2023/03/24 03:00:21;;;;;;;18.08;8.70;;;;;;;;;;6262643;28;20488;-62
2023/03/24 03:03:33;;;;;;;20.50;9.13;;;;;;;;;;6261625;28;20128;-61
2023/03/24 03:06:39;;;;;;;13.73;8.07;;;;;;;;;;6269951;28;20051;-61
2023/03/24 03:09:45;;;;;;;16.38;11.32;;;;;;;;;;6262918;28;20168;-62
2023/03/24 03:12:50;;;;;;;17.67;9.98;;;;;;;;;;6261412;28;20172;-62
2023/03/24 03:15:55;;;;;;;19.60;13.05;;;;;;;;;;6263934;28;20571;-62
2023/03/24 03:19:00;;;;;;;14.88;9.15;;;;;;;;;;6264069;28;20037;-62
2023/03/24 03:22:06;;;;;;;15.82;9.55;;;;;;;;;;6267882;28;20136;-62
2023/03/24 03:25:08;;;;;;;14.13;8.73;;;;;;;;;;6263652;28;20049;-64
2023/03/24 03:28:12;;;;;;;15.30;9.55;;;;;;;;;;6262155;28;20835;-62
2023/03/24 03:31:17;;;;;;;14.27;9.35;;;;;;;;;;6258680;28;20404;-62
2023/03/24 03:34:56;;;;;;;13.88;8.88;;;;;;;;;;6259617;28;20041;-62
2023/03/24 03:38:16;;;;;;;15.15;9.20;;;;;;;;;;6187922;28;20054;-62
2023/03/24 03:41:17;;;;;;;16.50;10.00;;;;;;;;;;6262890;28;20495;-63
2023/03/24 03:44:18;;;;;;;14.40;9.52;;;;;;;;;;6260968;28;20045;-62
2023/03/24 03:47:21;;;;;;;15.15;9.63;;;;;;;;;;6261613;28;20049;-62
2023/03/24 03:50:22;;;;;;;16.27;9.20;;;;;;;;;;6263453;28;20606;-62
2023/03/24 03:53:29;;;;;;;15.52;10.00;;;;;;;;;;6261687;28;20036;-61
2023/03/24 03:56:33;;;;;;;19.38;10.98;;;;;;;;;;6259229;28;20057;-61
2023/03/24 03:59:36;;;;;;;15.35;10.07;;;;;;;;;;6266568;28;20045;-60
2023/03/24 04:03:02;;;;;;;20.13;11.73;;;;;;;;;;6262194;28;20053;-60
2023/03/24 04:06:07;;;;;;;17.17;10.07;;;;;;;;;;6259572;28;20468;-60
2023/03/24 04:09:27;;;;;;;17.40;10.75;;;;;;;;;;6259215;28;20053;-59
2023/03/24 04:12:30;;;;;;;19.05;12.65;;;;;;;;;;6264122;28;20050;-61
2023/03/24 04:15:46;;;;;;;17.73;11.82;;;;;;;;;;6263271;28;20764;-61
2023/03/24 04:18:52;;;;;;;18.85;11.73;;;;;;;;;;6261109;28;20507;-60
2023/03/24 04:22:03;;;;;;;21.48;12.95;;;;;;;;;;6260967;28;20045;-60
2023/03/24 04:25:36;;;;;;;18.02;11.82;;;;;;;;;;6260273;28;20041;-60
2023/03/24 04:28:46;;;;;;;20.35;13.07;;;;;;;;;;6264485;28;20052;-60
2023/03/24 04:31:52;;;;;;;20.45;13.30;;;;;;;;;;6259208;28;20133;-59
2023/03/24 04:35:00;;;;;;;17.00;10.57;;;;;;;;;;6258456;28;20048;-65
2023/03/24 04:38:07;;;;;;;15.25;10.13;;;;;;;;;;6257885;28;20045;-62
2023/03/24 04:41:08;;;;;;;18.25;10.52;;;;;;;;;;6259700;28;20049;-62
2023/03/24 04:44:10;;;;;;;17.10;10.55;;;;;;;;;;6259523;28;20150;-63
2023/03/24 04:47:11;;;;;;;18.65;11.13;;;;;;;;;;6262671;28;20067;-63
2023/03/24 04:50:12;;;;;;;21.93;13.43;;;;;;;;;;6265003;28;20037;-61
2023/03/24 04:53:13;;;;;;;26.13;16.63;;;;;;;;;;6258265;28;20045;-62
2023/03/24 04:56:37;;;;;;;26.00;16.25;;;;;;;;;;6261753;28;20041;-62
2023/03/24 04:59:39;;;;;;;27.17;15.85;;;;;;;;;;6255609;28;20053;-63
2023/03/24 05:02:39;;;;;;;29.02;15.13;;;;;;;;;;6259581;28;20068;-65
2023/03/24 05:05:47;;;;;;;25.95;16.10;;;;;;;;;;6257512;28;20495;-62
2023/03/24 05:08:47;;;;;;;23.08;14.77;;;;;;;;;;6262731;28;20056;-65
2023/03/24 05:11:49;;;;;;;27.55;15.93;;;;;;;;;;6265778;28;20037;-61
2023/03/24 05:14:50;;;;;;;39.78;26.02;;;;;;;;;;6262177;28;20159;-61
2023/03/24 05:17:51;;;;;;;41.27;26.03;;;;;;;;;;6263004;28;20478;-62
2023/03/24 05:20:53;;;;;;;43.53;27.85;;;;;;;;;;6263639;28;20040;-62
2023/03/24 05:23:54;;;;;;;40.33;27.92;;;;;;;;;;6262930;28;20045;-63
2023/03/24 05:26:54;;;;;;;40.20;24.98;;;;;;;;;;6269093;28;20328;-62
2023/03/24 05:29:55;;;;;;;36.83;24.40;;;;;;;;;;6268348;28;20128;-61
2023/03/24 05:32:55;;;;;;;31.42;20.95;;;;;;;;;;6267181;28;20419;-61
2023/03/24 05:35:56;;;;;;;32.72;22.40;;;;;;;;;;6267799;28;20081;-61
2023/03/24 05:38:56;;;;;;;36.50;24.00;;;;;;;;;;6267102;28;20068;-63
2023/03/24 05:41:57;;;;;;;28.58;18.75;;;;;;;;;;6263512;28;20041;-63
2023/03/24 05:44:58;;;;;;;23.15;15.88;;;;;;;;;;6260389;28;20071;-62
2023/03/24 05:47:59;;;;;;;28.42;16.58;;;;;;;;;;6264233;28;20064;-62
2023/03/24 05:50:59;;;;;;;23.65;16.83;;;;;;;;;;6263856;28;20041;-62
2023/03/24 05:54:00;;;;;;;28.38;20.80;;;;;;;;;;6264855;28;20123;-66
2023/03/24 05:57:01;;;;;;;26.48;18.20;;;;;;;;;;6265139;28;20118;-62
2023/03/24 06:00:08;;;;;;;28.07;18.47;;;;;;;;;;6261886;28;20051;-62
2023/03/24 06:03:08;;;;;;;29.20;19.73;;;;;;;;;;6258054;28;20171;-62
2023/03/24 06:06:15;;;;;;;23.63;15.82;;;;;;;;;;6262196;28;20381;-62
2023/03/24 06:09:15;;;;;;;30.42;20.70;;;;;;;;;;6263945;28;20052;-62
2023/03/24 06:12:17;;;;;;;29.65;21.88;;;;;;;;;;6264181;28;20049;-62
2023/03/24 06:15:17;;;;;;;31.00;22.10;;;;;;;;;;6261951;28;20049;-63
2023/03/24 06:18:20;;;;;;;30.97;18.37;;;;;;;;;;6259714;28;20041;-62
2023/03/24 06:21:20;;;;;;;;;;;;;;;;;;6267125;28;20041;-61
2023/03/24 06:24:21;;;;;;;29.08;17.08;;;;;;;;;;6266774;28;19921;-58
2023/03/24 06:27:24;;;;;;;33.35;20.13;;;;;;;;;;6270189;28;20496;-62
2023/03/24 06:30:25;;;;;;;36.42;21.63;;;;;;;;;;6270609;28;20041;-60
2023/03/24 06:33:25;;;;;;;30.85;21.20;;;;;;;;;;6269813;28;20412;-61
2023/03/24 06:36:26;;;;;;;27.70;18.05;;;;;;;;;;6269349;28;20049;-60
2023/03/24 06:39:27;;;;;;;27.35;17.35;;;;;;;;;;6270968;28;20388;-60
2023/03/24 06:42:28;;;;;;;30.23;21.50;;;;;;;;;;6270019;28;20049;-64
2023/03/24 06:45:28;;;;;;;29.48;19.60;;;;;;;;;;6268703;28;20455;-60
2023/03/24 06:48:29;;;;;;;28.95;20.27;;;;;;;;;;6270145;28;20492;-58
2023/03/24 06:51:29;;;;;;;28.75;19.40;;;;;;;;;;6270197;28;20103;-61
2023/03/24 06:54:30;;;;;;;28.63;19.73;;;;;;;;;;6266725;28;20080;-61
2023/03/24 06:57:31;;;;;;;27.52;19.48;;;;;;;;;;6256232;28;20053;-61
2023/03/24 07:00:31;;;;;;;32.90;21.35;;;;;;;;;;6265989;28;20052;-60
2023/03/24 07:03:32;;;;;;;28.30;19.55;;;;;;;;;;6255072;28;20432;-62
2023/03/24 07:06:33;;;;;;;29.48;20.77;;;;;;;;;;6265383;28;20041;-60
2023/03/24 07:09:33;;;;;;;34.60;22.13;;;;;;;;;;6268588;28;20060;-61
2023/03/24 07:12:35;;;;;;;38.70;29.38;;;;;;;;;;6268374;28;20053;-61
2023/03/24 07:15:36;;;;;;;28.73;20.08;;;;;;;;;;6262844;28;20083;-65
2023/03/24 07:18:36;;;;;;;32.13;21.57;;;;;;;;;;6268672;28;20139;-62
2023/03/24 07:21:37;;;;;;;32.00;19.42;;;;;;;;;;6268547;28;20067;-57
2023/03/24 07:24:38;;;;;;;45.95;23.33;;;;;;;;;;6266024;28;20056;-68
2023/03/24 07:27:39;;;;;;;30.30;19.77;;;;;;;;;;6268007;28;20430;-61
2023/03/24 07:30:40;;;;;;;30.10;17.05;;;;;;;;;;6268321;28;20056;-62
2023/03/24 07:33:41;;;;;;;28.65;19.13;;;;;;;;;;6266809;28;20420;-62
2023/03/24 07:36:41;;;;;;;30.60;23.25;;;;;;;;;;6267042;28;20041;-62
2023/03/24 07:39:42;;;;;;;26.75;17.92;;;;;;;;;;6268593;28;20111;-62
2023/03/24 07:42:42;;;;;;;29.08;19.45;;;;;;;;;;6267553;28;20091;-63
2023/03/24 07:45:45;;;;;;;29.25;20.00;;;;;;;;;;6266241;28;20503;-62
2023/03/24 07:48:46;;;;;;;27.20;17.67;;;;;;;;;;6267855;28;20591;-60
2023/03/24 07:51:46;;;;;;;29.67;20.15;;;;;;;;;;6267638;28;20049;-60
2023/03/24 07:54:47;;;;;;;27.25;18.17;;;;;;;;;;6265778;28;20118;-61
2023/03/24 07:57:49;;;;;;;28.13;19.85;;;;;;;;;;6267482;28;20492;-60
2023/03/24 08:00:50;;;;;;;24.95;15.90;;;;;;;;;;6267297;28;20232;-60
2023/03/24 08:03:53;;;;;;;30.30;17.77;;;;;;;;;;6262946;28;20045;-61
2023/03/24 08:06:53;;;;;;;30.73;17.92;;;;;;;;;;6265997;28;20484;-61
2023/03/24 08:09:54;;;;;;;28.80;17.80;;;;;;;;;;6267338;28;20060;-58
2023/03/24 08:12:56;;;;;;;28.58;18.77;;;;;;;;;;6266234;28;20150;-62
2023/03/24 08:15:56;;;;;;;26.27;18.15;;;;;;;;;;6259802;28;20110;-62
2023/03/24 08:18:58;;;;;;;28.20;16.25;;;;;;;;;;6259320;28;20430;-61
2023/03/24 08:21:58;;;;;;;27.48;18.10;;;;;;;;;;6267224;28;20049;-59
2023/03/24 08:24:59;;;;;;;21.83;14.82;;;;;;;;;;6265569;28;20048;-61
2023/03/24 08:27:59;;;;;;;27.08;16.13;;;;;;;;;;6253537;28;20451;-62
2023/03/24 08:31:00;;;;;;;24.95;15.60;;;;;;;;;;6267365;28;20103;-65
2023/03/24 08:34:01;;;;;;;22.63;15.15;;;;;;;;;;6265148;28;20071;-61
2023/03/24 08:37:02;;;;;;;29.25;15.13;;;;;;;;;;6262538;28;20052;-64
2023/03/24 08:40:04;;;;;;;26.42;15.43;;;;;;;;;;6266445;28;20783;-62
2023/03/24 08:43:08;;;;;;;;;;;;;;;;;;6255881;28;20083;-64
2023/03/24 08:46:09;;;;;;;21.88;13.07;;;;;;;;;;6253415;28;19924;-63
2023/03/24 08:49:10;;;;;;;22.23;14.43;;;;;;;;;;6256045;28;20041;-61
2023/03/24 08:52:11;;;;;;;22.65;15.98;;;;;;;;;;6250104;28;20087;-61
2023/03/24 08:55:12;;;;;;;18.43;12.27;;;;;;;;;;6256340;28;20069;-63
2023/03/24 08:58:14;;;;;;;19.05;12.82;;;;;;;;;;6258063;28;20049;-62
2023/03/24 09:01:16;;;;;;;21.35;12.77;;;;;;;;;;6254909;28;20056;-62
2023/03/24 09:04:17;;;;;;;24.23;15.43;;;;;;;;;;6259771;28;20048;-65
2023/03/24 09:07:18;;;;;;;24.30;15.13;;;;;;;;;;6256615;28;20056;-62
2023/03/24 09:10:21;;;;;;;21.30;12.98;;;;;;;;;;6256791;28;20045;-61
2023/03/24 09:13:22;;;;;;;21.45;13.65;;;;;;;;;;6254889;28;20140;-66
2023/03/24 09:16:23;;;;;;;17.45;11.65;;;;;;;;;;6254739;28;20481;-62
2023/03/24 09:19:24;;;;;;;20.10;12.00;;;;;;;;;;6257326;28;20045;-62
2023/03/24 09:22:25;;;;;;;17.40;11.55;;;;;;;;;;6255504;28;20071;-61
2023/03/24 09:25:26;;;;;;;15.88;10.15;;;;;;;;;;6253760;28;20053;-62
2023/03/24 09:28:27;;;;;;;15.13;10.05;;;;;;;;;;6252907;28;20087;-62
2023/03/24 09:31:27;;;;;;;13.90;8.98;;;;;;;;;;6255881;28;20049;-62
2023/03/24 09:34:29;;;;;;;14.85;9.00;;;;;;;;;;6254025;28;20041;-60
2023/03/24 09:37:30;;;;;;;;;;;;;;;;;;6256359;28;20053;-62
2023/03/24 09:40:37;;;;;;;14.23;9.30;;;;;;;;;;6256118;28;19936;-62
2023/03/24 09:43:56;;;;;;;13.50;9.27;;;;;;;;;;6259982;28;20076;-68
2023/03/24 09:47:00;;;;;;;16.58;9.93;;;;;;;;;;6254685;28;20041;-62
2023/03/24 09:50:35;;;;;;;13.82;10.00;;;;;;;;;;6254010;28;20073;-60
2023/03/24 09:53:40;;;;;;;16.25;10.20;;;;;;;;;;6250701;28;20045;-61
2023/03/24 09:56:44;;;;;;;15.85;9.80;;;;;;;;;;6261099;28;20056;-62
2023/03/24 09:59:45;;;;;;;14.05;9.57;;;;;;;;;;6259942;28;20049;-61
2023/03/24 10:02:46;;;;;;;13.27;8.55;;;;;;;;;;6261718;28;20407;-61
2023/03/24 10:05:54;;;;;;;14.93;8.73;;;;;;;;;;6260033;28;20037;-62
2023/03/24 10:09:10;;;;;;;20.58;9.13;;;;;;;;;;6257730;28;20923;-61
2023/03/24 10:12:27;;;;;;;13.65;8.52;;;;;;;;;;6258213;28;20048;-61
2023/03/24 10:16:05;;;;;;;9.77;7.18;;;;;;;;;;6261734;28;20045;-60
2023/03/24 10:19:17;;;;;;;11.57;8.43;;;;;;;;;;6258235;28;20133;-61
2023/03/24 10:22:54;;;;;;;17.80;7.97;;;;;;;;;;6253362;28;20124;-64
2023/03/24 10:26:09;;;;;;;12.38;7.85;;;;;;;;;;6176019;28;20058;-62
2023/03/24 10:29:32;;;;;;;13.07;8.20;;;;;;;;;;6262552;28;20752;-61
2023/03/24 10:32:35;;;;;;;13.02;7.82;;;;;;;;;;6261266;28;20499;-64
2023/03/24 10:35:42;;;;;;;11.70;7.80;;;;;;;;;;6256636;28;20044;-64
2023/03/24 10:38:43;;;;;;;10.98;6.90;;;;;;;;;;6263030;28;20779;-65
2023/03/24 10:41:43;;;;;;;12.30;7.63;;;;;;;;;;6261668;28;20067;-61
2023/03/24 10:44:47;;;;;;;12.17;7.33;;;;;;;;;;6257464;28;20386;-61
2023/03/24 10:47:49;;;;;;;12.05;7.47;;;;;;;;;;6256996;28;20041;-62
2023/03/24 10:50:51;;;;;;;9.63;7.22;;;;;;;;;;6254977;28;20041;-65
2023/03/24 10:54:08;;;;;;;;;;;;;;;;;;6260125;28;20055;-61
2023/03/24 10:57:16;;;;;;;11.25;7.38;;;;;;;;;;6258543;28;19986;-61
2023/03/24 11:00:28;;;;;;;10.35;6.82;;;;;;;;;;6255520;28;20048;-61
2023/03/24 11:03:31;;;;;;;10.00;6.75;;;;;;;;;;6259587;28;20056;-61
2023/03/24 11:06:32;;;;;;;10.23;6.50;;;;;;;;;;6264291;28;20051;-61
2023/03/24 11:09:42;;;;;;;10.52;7.03;;;;;;;;;;6262916;28;20056;-61
2023/03/24 11:13:03;;;;;;;9.48;6.50;;;;;;;;;;6263584;28;20037;-61
2023/03/24 11:16:04;;;;;;;10.38;6.63;;;;;;;;;;6260656;28;20052;-61
2023/03/24 11:19:23;;;;;;;9.38;6.68;;;;;;;;;;6266180;28;20713;-67
2023/03/24 11:22:24;;;;;;;12.13;7.30;;;;;;;;;;6263912;28;20400;-68
2023/03/24 11:25:31;;;;;;;11.02;8.32;;;;;;;;;;6265090;28;20090;-61
2023/03/24 11:28:56;;;;;;;11.70;7.65;;;;;;;;;;6265416;28;20049;-66
2023/03/24 11:32:00;;;;;;;10.05;7.28;;;;;;;;;;6261403;28;20049;-64
2023/03/24 11:35:06;;;;;;;11.43;6.57;;;;;;;;;;6265472;28;20080;-61
2023/03/24 11:38:07;;;;;;;9.05;5.97;;;;;;;;;;6267138;28;20094;-62
2023/03/24 11:41:20;;;;;;;10.37;7.57;;;;;;;;;;6267812;28;20049;-66
2023/03/24 11:44:23;;;;;;;13.23;7.15;;;;;;;;;;6265633;28;20143;-62
2023/03/24 11:47:32;;;;;;;10.05;7.00;;;;;;;;;;6267635;28;20060;-62
2023/03/24 11:50:36;;;;;;;13.40;8.93;;;;;;;;;;6264608;28;20049;-62
2023/03/24 11:53:51;;;;;;;11.32;6.90;;;;;;;;;;6266360;28;20135;-63
2023/03/24 11:56:57;;;;;;;10.32;6.32;;;;;;;;;;6266634;28;20044;-65
2023/03/24 12:00:26;;;;;;;12.57;7.18;;;;;;;;;;6262692;28;20060;-63
2023/03/24 12:03:48;;;;;;;13.10;6.65;;;;;;;;;;6256239;28;20484;-63
2023/03/24 12:06:54;;;;;;;9.45;7.32;;;;;;;;;;6266965;28;20063;-62
2023/03/24 12:10:07;;;;;;;9.65;6.78;;;;;;;;;;6265948;28;20466;-62
2023/03/24 12:13:18;;;;;;;11.38;6.78;;;;;;;;;;6266384;28;20163;-64
2023/03/24 12:16:55;;;;;;;11.70;7.50;;;;;;;;;;6265797;28;20416;-61
2023/03/24 12:20:05;;;;;;;11.52;7.63;;;;;;;;;;6253617;28;20053;-62
2023/03/24 12:23:27;;;;;;;10.30;7.35;;;;;;;;;;6264296;28;20053;-63
2023/03/24 12:26:33;;;;;;;15.10;7.07;;;;;;;;;;6266878;28;20052;-62
2023/03/24 12:29:57;;;;;;;14.10;7.68;;;;;;;;;;6265008;28;20089;-61
2023/03/24 12:33:16;;;;;;;11.10;7.35;;;;;;;;;;6260521;28;20045;-61
2023/03/24 12:37:00;;;;;;;11.35;7.20;;;;;;;;;;6264545;28;20045;-61
2023/03/24 12:40:37;;;;;;;14.32;8.45;;;;;;;;;;6211203;28;20077;-60
2023/03/24 12:44:29;;;;;;;14.32;9.32;;;;;;;;;;6257262;28;20841;-64
2023/03/24 12:47:45;;;;;;;12.63;7.20;;;;;;;;;;6232769;28;20061;-61
2023/03/24 12:51:04;;;;;;;12.73;8.52;;;;;;;;;;6266742;28;20052;-61
2023/03/24 12:54:17;;;;;;;17.98;7.80;;;;;;;;;;6266435;28;20052;-65
2023/03/24 12:57:24;;;;;;;12.73;7.50;;;;;;;;;;6266929;28;20095;-61
2023/03/24 13:00:37;;;;;;;12.80;7.32;;;;;;;;;;6263229;28;20071;-61
2023/03/24 13:04:04;;;;;;;13.45;7.25;;;;;;;;;;6255782;28;20130;-60
2023/03/24 13:07:10;;;;;;;10.02;7.10;;;;;;;;;;6250710;28;20052;-61
2023/03/24 13:10:28;;;;;;;12.13;7.35;;;;;;;;;;6265258;28;20130;-64
2023/03/24 13:13:35;;;;;;;13.07;7.55;;;;;;;;;;6266754;28;20063;-61
2023/03/24 13:16:36;;;;;;;11.60;7.43;;;;;;;;;;6263499;28;20056;-61
2023/03/24 13:19:39;;;;;;;13.15;7.57;;;;;;;;;;6253173;28;20045;-62
2023/03/24 13:22:41;;;;;;;13.70;7.53;;;;;;;;;;6264533;28;20431;-61
2023/03/24 13:25:51;;;;;;;10.95;7.05;;;;;;;;;;6265636;28;20047;-61
2023/03/24 13:29:18;;;;;;;10.93;7.18;;;;;;;;;;6266913;28;20398;-62
2023/03/24 13:32:20;;;;;;;13.10;7.13;;;;;;;;;;6264176;28;20106;-62
2023/03/24 13:35:50;;;;;;;11.93;7.10;;;;;;;;;;6270644;28;20416;-61
2023/03/24 13:38:59;;;;;;;13.98;7.53;;;;;;;;;;6270633;28;20515;-61
2023/03/24 13:42:01;;;;;;;11.70;7.32;;;;;;;;;;6271310;28;20243;-62
2023/03/24 13:45:05;;;;;;;9.90;7.22;;;;;;;;;;6269293;28;20049;-61
2023/03/24 13:48:18;;;;;;;11.38;7.28;;;;;;;;;;6271075;28;20049;-61
2023/03/24 13:51:31;;;;;;;12.57;7.97;;;;;;;;;;6258710;28;20055;-60
2023/03/24 13:54:35;;;;;;;11.85;7.68;;;;;;;;;;6258035;28;20812;-66
2023/03/24 13:57:50;;;;;;;13.50;7.47;;;;;;;;;;6260727;28;20488;-62
2023/03/24 14:01:13;;;;;;;12.25;7.97;;;;;;;;;;6260079;28;20048;-61
2023/03/24 14:04:17;;;;;;;11.95;7.90;;;;;;;;;;6261228;28;20059;-63
2023/03/24 14:07:39;;;;;;;13.07;8.02;;;;;;;;;;6258594;28;20049;-63
2023/03/24 14:10:50;;;;;;;12.55;8.27;;;;;;;;;;6258973;28;20395;-62
2023/03/24 14:13:51;;;;;;;11.93;8.05;;;;;;;;;;6262037;28;20053;-60
2023/03/24 14:17:12;;;;;;;15.35;8.77;;;;;;;;;;6261181;28;20621;-61
2023/03/24 14:20:24;;;;;;;12.95;8.30;;;;;;;;;;6258479;28;20049;-61
2023/03/24 14:23:48;;;;;;;17.98;9.15;;;;;;;;;;6258833;28;20048;-60
2023/03/24 14:26:48;;;;;;;13.45;8.20;;;;;;;;;;6261138;28;20087;-62
2023/03/24 14:29:51;;;;;;;12.00;8.70;;;;;;;;;;6261717;28;20189;-62
2023/03/24 14:32:55;;;;;;;12.57;8.35;;;;;;;;;;6256734;28;20416;-60
2023/03/24 14:36:05;;;;;;;11.60;8.18;;;;;;;;;;6261595;28;20048;-62
2023/03/24 14:39:31;;;;;;;12.38;8.77;;;;;;;;;;6259265;28;20088;-61
2023/03/24 14:42:34;;;;;;;11.50;7.07;;;;;;;;;;6257683;28;20076;-61
2023/03/24 14:45:56;;;;;;;13.88;7.65;;;;;;;;;;6259336;28;20080;-61
2023/03/24 14:49:08;;;;;;;11.75;7.25;;;;;;;;;;6260711;28;20048;-61
2023/03/24 14:52:17;;;;;;;11.73;8.25;;;;;;;;;;6258593;28;20056;-61
2023/03/24 14:55:19;;;;;;;11.75;7.00;;;;;;;;;;6259997;28;20047;-61
2023/03/24 14:58:34;;;;;;;13.65;7.32;;;;;;;;;;6257795;28;20075;-62
2023/03/24 15:01:36;;;;;;;10.68;7.93;;;;;;;;;;6256027;28;20057;-62
2023/03/24 15:04:38;;;;;;;10.88;6.97;;;;;;;;;;6256901;28;20049;-61
2023/03/24 15:07:40;;;;;;;10.88;6.82;;;;;;;;;;6257631;28;20106;-61
2023/03/24 15:10:43;;;;;;;;;;;;;;;;;;6258516;28;20067;-61
2023/03/24 15:13:48;;;;;;;10.65;6.20;;;;;;;;;;6259811;28;19924;-63
2023/03/24 15:17:03;;;;;;;12.25;6.15;;;;;;;;;;6259331;28;20057;-62
2023/03/24 15:20:06;;;;;;;11.50;7.03;;;;;;;;;;6258952;28;20041;-61
2023/03/24 15:23:12;;;;;;;13.98;5.82;;;;;;;;;;6257591;28;20076;-60
2023/03/24 15:26:14;;;;;;;9.77;6.00;;;;;;;;;;6259536;28;20049;-60
2023/03/24 15:29:14;;;;;;;10.43;5.53;;;;;;;;;;6253955;28;20140;-60
2023/03/24 15:32:20;;;;;;;11.98;5.93;;;;;;;;;;6257401;28;20052;-60
2023/03/24 15:35:22;;;;;;;8.00;5.28;;;;;;;;;;6257277;28;20057;-61
2023/03/24 15:38:30;;;;;;;;;;;;;;;;;;6249348;28;20059;-61
2023/03/24 15:41:30;;;;;;;14.23;6.43;;;;;;;;;;6249418;28;19928;-61
2023/03/24 15:44:36;;;;;;;11.90;6.30;;;;;;;;;;6253936;28;20045;-60
2023/03/24 15:47:39;;;;;;;12.40;6.50;;;;;;;;;;6251718;28;20136;-60
2023/03/24 15:50:53;;;;;;;11.98;6.40;;;;;;;;;;6246681;28;21567;-60
2023/03/24 15:53:57;;;;;;;11.48;6.60;;;;;;;;;;6251511;28;20127;-60
2023/03/24 15:57:00;;;;;;;12.90;6.85;;;;;;;;;;6251013;28;20045;-60
2023/03/24 16:00:00;;;;;;;9.00;5.82;;;;;;;;;;6252163;28;20044;-61
2023/03/24 16:03:05;;;;;;;11.13;6.47;;;;;;;;;;6250174;28;20047;-61
2023/03/24 16:06:12;;;;;;;9.82;5.88;;;;;;;;;;6252713;28;20059;-60
2023/03/24 16:09:15;;;;;;;12.95;6.07;;;;;;;;;;6251331;28;20061;-60
2023/03/24 16:12:15;;;;;;;9.93;6.10;;;;;;;;;;6250111;28;20045;-61
2023/03/24 16:15:16;;;;;;;9.10;5.70;;;;;;;;;;6252321;28;20141;-60
2023/03/24 16:18:20;;;;;;;9.90;5.83;;;;;;;;;;6251131;28;20048;-60
2023/03/24 16:21:24;;;;;;;9.80;5.88;;;;;;;;;;6245762;28;20068;-60
2023/03/24 16:24:25;;;;;;;10.82;5.80;;;;;;;;;;6252575;28;21016;-60
2023/03/24 16:27:25;;;;;;;9.63;5.80;;;;;;;;;;6252680;28;20045;-60
2023/03/24 16:30:29;;;;;;;8.95;5.32;;;;;;;;;;6249809;28;20072;-60
2023/03/24 16:33:30;;;;;;;8.48;5.35;;;;;;;;;;6249886;28;20754;-60
2023/03/24 16:36:30;;;;;;;8.95;5.93;;;;;;;;;;6253125;28;20060;-62
2023/03/24 16:39:31;;;;;;;10.60;5.93;;;;;;;;;;6252111;28;20079;-62
2023/03/24 16:42:31;;;;;;;11.73;5.60;;;;;;;;;;6251702;28;20090;-63
2023/03/24 16:45:32;;;;;;;9.15;5.97;;;;;;;;;;6256909;28;20041;-62
2023/03/24 16:48:33;;;;;;;8.57;5.25;;;;;;;;;;6258923;28;20083;-62
2023/03/24 16:51:34;;;;;;;10.20;6.47;;;;;;;;;;6254759;28;20058;-62
2023/03/24 16:54:34;;;;;;;9.55;6.07;;;;;;;;;;6256663;28;20493;-62
2023/03/24 16:57:35;;;;;;;11.27;6.28;;;;;;;;;;6252315;28;20087;-62
2023/03/24 17:00:36;;;;;;;9.35;6.32;;;;;;;;;;6252379;28;20049;-62
2023/03/24 17:03:39;;;;;;;9.05;6.55;;;;;;;;;;6256825;28;20048;-62
2023/03/24 17:06:42;;;;;;;11.35;7.38;;;;;;;;;;6261000;28;20064;-61
2023/03/24 17:09:45;;;;;;;15.50;9.98;;;;;;;;;;6260642;28;20071;-61
2023/03/24 17:12:46;;;;;;;14.60;9.65;;;;;;;;;;6253285;28;20600;-62
2023/03/24 17:15:47;;;;;;;17.17;11.68;;;;;;;;;;6259489;28;20056;-62
2023/03/24 17:18:48;;;;;;;15.75;12.70;;;;;;;;;;6259920;28;20061;-62
2023/03/24 17:21:57;;;;;;;15.48;9.85;;;;;;;;;;6257143;28;20139;-58
2023/03/24 17:24:58;;;;;;;12.90;9.23;;;;;;;;;;6259999;28;20420;-60
2023/03/24 17:27:59;;;;;;;14.82;9.82;;;;;;;;;;6260148;28;20055;-58
2023/03/24 17:31:00;;;;;;;13.98;10.00;;;;;;;;;;6255795;28;20048;-62
2023/03/24 17:34:00;;;;;;;14.07;8.98;;;;;;;;;;6259976;28;20122;-60
2023/03/24 17:37:01;;;;;;;12.95;8.18;;;;;;;;;;6260543;28;20075;-62
2023/03/24 17:40:10;;;;;;;14.17;9.30;;;;;;;;;;6260613;28;20059;-61
2023/03/24 17:43:11;;;;;;;17.10;9.27;;;;;;;;;;6256747;28;20052;-62
2023/03/24 17:46:12;;;;;;;29.00;17.17;;;;;;;;;;6260348;28;20073;-61
2023/03/24 17:49:13;;;;;;;27.60;17.48;;;;;;;;;;6259393;28;20048;-62
2023/03/24 17:52:13;;;;;;;30.95;22.77;;;;;;;;;;6256356;28;20053;-61
2023/03/24 17:55:15;;;;;;;18.60;11.93;;;;;;;;;;6259986;28;20056;-61
2023/03/24 17:58:16;;;;;;;14.52;9.27;;;;;;;;;;6260075;28;20625;-62
2023/03/24 18:01:17;;;;;;;13.18;8.63;;;;;;;;;;6255837;28;20049;-62
2023/03/24 18:04:17;;;;;;;14.07;8.77;;;;;;;;;;6258919;28;20048;-62
2023/03/24 18:07:18;;;;;;;12.68;8.45;;;;;;;;;;6259680;28;20049;-62
2023/03/24 18:10:19;;;;;;;17.08;10.13;;;;;;;;;;6258613;28;20161;-61
2023/03/24 18:13:19;;;;;;;28.02;20.90;;;;;;;;;;6257237;28;20052;-61
2023/03/24 18:16:20;;;;;;;18.48;11.90;;;;;;;;;;6257868;28;20064;-62
2023/03/24 18:19:21;;;;;;;38.40;25.58;;;;;;;;;;6259449;28;20053;-59